sensor_id;sensor_type;location;lat;lon;timestamp;temperature;humidity
47825;DHT22;33589;48.242;14.676;2023-09-19T00:00:36;17.60;99.90
47825;DHT22;33589;48.242;14.676;2023-09-19T00:03:02;17.50;99.90
47825;DHT22;33589;48.242;14.676;2023-09-19T00:05:29;17.70;99.90
47825;DHT22;33589;48.242;14.676;2023-09-19T00:07:57;18.00;99.90
47825;DHT22;33589;48.242;14.676;2023-09-19T00:10:27;15.60;99.90
47825;DHT22;33589;48.242;14.676;2023-09-19T00:12:58;17.70;99.90
47825;DHT22;33589;48.242;14.676;2023-09-19T00:15:31;17.60;99.90
47825;DHT22;33589;48.242;14.676;2023-09-19T00:18:01;17.60;99.90
47825;DHT22;33589;48.242;14.676;2023-09-19T00:20:28;17.50;99.90
47825;DHT22;33589;48.242;14.676;2023-09-19T00:22:55;17.50;99.90
47825;DHT22;33589;48.242;14.676;2023-09-19T00:25:21;16.60;99.90
47825;DHT22;33589;48.242;14.676;2023-09-19T00:27:47;16.40;99.90
47825;DHT22;33589;48.242;14.676;2023-09-19T00:30:14;17.70;99.90
47825;DHT22;33589;48.242;14.676;2023-09-19T00:32:44;17.50;99.90
47825;DHT22;33589;48.242;14.676;2023-09-19T00:35:15;16.70;99.90
47825;DHT22;33589;48.242;14.676;2023-09-19T00:37:42;17.80;99.90
47825;DHT22;33589;48.242;14.676;2023-09-19T00:40:09;17.50;99.90
47825;DHT22;33589;48.242;14.676;2023-09-19T00:42:44;17.60;99.90
47825;DHT22;33589;48.242;14.676;2023-09-19T00:45:11;17.60;99.90
47825;DHT22;33589;48.242;14.676;2023-09-19T00:47:44;17.40;99.90
47825;DHT22;33589;48.242;14.676;2023-09-19T00:50:12;17.40;99.90
47825;DHT22;33589;48.242;14.676;2023-09-19T00:52:40;17.50;99.90
47825;DHT22;33589;48.242;14.676;2023-09-19T00:55:11;17.50;99.90
47825;DHT22;33589;48.242;14.676;2023-09-19T00:57:40;17.40;99.90
47825;DHT22;33589;48.242;14.676;2023-09-19T01:00:07;17.30;99.90
47825;DHT22;33589;48.242;14.676;2023-09-19T01:02:34;17.30;99.90
47825;DHT22;33589;48.242;14.676;2023-09-19T01:05:00;18.30;99.90
47825;DHT22;33589;48.242;14.676;2023-09-19T01:07:27;17.10;99.90
47825;DHT22;33589;48.242;14.676;2023-09-19T01:09:59;17.20;99.90
47825;DHT22;33589;48.242;14.676;2023-09-19T01:12:55;16.40;99.90
47825;DHT22;33589;48.242;14.676;2023-09-19T01:20:41;17.50;99.90
47825;DHT22;33589;48.242;14.676;2023-09-19T01:23:46;17.40;99.90
47825;DHT22;33589;48.242;14.676;2023-09-19T01:29:25;17.10;99.90
47825;DHT22;33589;48.242;14.676;2023-09-19T01:31:59;17.10;99.90
47825;DHT22;33589;48.242;14.676;2023-09-19T01:34:27;17.30;99.90
47825;DHT22;33589;48.242;14.676;2023-09-19T01:36:52;17.50;99.90
47825;DHT22;33589;48.242;14.676;2023-09-19T01:39:18;17.40;99.90
47825;DHT22;33589;48.242;14.676;2023-09-19T01:41:59;17.40;99.90
47825;DHT22;33589;48.242;14.676;2023-09-19T01:44:49;17.30;99.90
47825;DHT22;33589;48.242;14.676;2023-09-19T01:47:37;17.20;99.90
47825;DHT22;33589;48.242;14.676;2023-09-19T01:50:11;17.20;99.90
47825;DHT22;33589;48.242;14.676;2023-09-19T01:52:43;17.20;99.90
47825;DHT22;33589;48.242;14.676;2023-09-19T01:55:12;17.40;99.90
47825;DHT22;33589;48.242;14.676;2023-09-19T01:57:48;17.40;99.90
47825;DHT22;33589;48.242;14.676;2023-09-19T02:00:16;17.50;99.90
47825;DHT22;33589;48.242;14.676;2023-09-19T02:02:47;17.60;99.90
47825;DHT22;33589;48.242;14.676;2023-09-19T02:05:13;17.50;99.90
47825;DHT22;33589;48.242;14.676;2023-09-19T02:07:47;17.20;99.90
47825;DHT22;33589;48.242;14.676;2023-09-19T02:10:13;17.50;99.90
47825;DHT22;33589;48.242;14.676;2023-09-19T02:12:39;17.40;99.90
47825;DHT22;33589;48.242;14.676;2023-09-19T02:15:05;17.60;99.90
47825;DHT22;33589;48.242;14.676;2023-09-19T02:17:32;17.50;99.90
47825;DHT22;33589;48.242;14.676;2023-09-19T02:19:58;17.40;99.90
47825;DHT22;33589;48.242;14.676;2023-09-19T02:22:26;17.60;99.90
47825;DHT22;33589;48.242;14.676;2023-09-19T02:24:53;17.50;99.90
47825;DHT22;33589;48.242;14.676;2023-09-19T02:27:19;17.70;99.90
47825;DHT22;33589;48.242;14.676;2023-09-19T02:29:45;17.70;99.90
47825;DHT22;33589;48.242;14.676;2023-09-19T02:32:10;17.60;99.90
47825;DHT22;33589;48.242;14.676;2023-09-19T02:34:36;17.60;99.90
47825;DHT22;33589;48.242;14.676;2023-09-19T02:37:06;17.70;99.90
47825;DHT22;33589;48.242;14.676;2023-09-19T02:39:32;17.60;99.90
47825;DHT22;33589;48.242;14.676;2023-09-19T02:41:57;17.70;99.90
47825;DHT22;33589;48.242;14.676;2023-09-19T02:44:23;17.60;99.90
47825;DHT22;33589;48.242;14.676;2023-09-19T02:46:50;17.60;99.90
47825;DHT22;33589;48.242;14.676;2023-09-19T02:49:16;17.30;99.90
47825;DHT22;33589;48.242;14.676;2023-09-19T02:51:43;17.10;99.90
47825;DHT22;33589;48.242;14.676;2023-09-19T02:54:09;17.30;99.90
47825;DHT22;33589;48.242;14.676;2023-09-19T02:56:35;17.30;99.90
47825;DHT22;33589;48.242;14.676;2023-09-19T02:59:02;17.30;99.90
47825;DHT22;33589;48.242;14.676;2023-09-19T03:01:28;17.20;99.90
47825;DHT22;33589;48.242;14.676;2023-09-19T03:03:54;17.20;99.90
47825;DHT22;33589;48.242;14.676;2023-09-19T03:06:20;17.30;99.90
47825;DHT22;33589;48.242;14.676;2023-09-19T03:08:47;17.30;99.90
47825;DHT22;33589;48.242;14.676;2023-09-19T03:11:15;17.40;99.90
47825;DHT22;33589;48.242;14.676;2023-09-19T03:13:45;17.30;99.90
47825;DHT22;33589;48.242;14.676;2023-09-19T03:16:11;17.50;99.90
47825;DHT22;33589;48.242;14.676;2023-09-19T03:18:40;17.70;99.90
47825;DHT22;33589;48.242;14.676;2023-09-19T03:21:06;17.50;99.90
47825;DHT22;33589;48.242;14.676;2023-09-19T03:23:31;17.30;99.90
47825;DHT22;33589;48.242;14.676;2023-09-19T03:25:57;17.40;99.90
47825;DHT22;33589;48.242;14.676;2023-09-19T03:28:24;17.50;99.90
47825;DHT22;33589;48.242;14.676;2023-09-19T03:31:06;17.50;99.90
47825;DHT22;33589;48.242;14.676;2023-09-19T03:33:34;17.50;99.90
47825;DHT22;33589;48.242;14.676;2023-09-19T03:36:01;17.50;99.90
47825;DHT22;33589;48.242;14.676;2023-09-19T03:38:31;17.10;99.90
47825;DHT22;33589;48.242;14.676;2023-09-19T03:40:57;17.20;99.90
47825;DHT22;33589;48.242;14.676;2023-09-19T03:43:23;17.40;99.90
47825;DHT22;33589;48.242;14.676;2023-09-19T03:45:48;17.40;99.90
47825;DHT22;33589;48.242;14.676;2023-09-19T03:48:17;17.40;99.90
47825;DHT22;33589;48.242;14.676;2023-09-19T03:50:43;17.70;99.90
47825;DHT22;33589;48.242;14.676;2023-09-19T03:53:09;17.50;99.90
47825;DHT22;33589;48.242;14.676;2023-09-19T03:55:35;17.40;99.90
47825;DHT22;33589;48.242;14.676;2023-09-19T03:58:04;17.30;99.90
47825;DHT22;33589;48.242;14.676;2023-09-19T04:00:30;17.30;99.90
47825;DHT22;33589;48.242;14.676;2023-09-19T04:02:56;17.40;99.90
47825;DHT22;33589;48.242;14.676;2023-09-19T04:05:25;17.60;99.90
47825;DHT22;33589;48.242;14.676;2023-09-19T04:07:51;17.50;99.90
47825;DHT22;33589;48.242;14.676;2023-09-19T04:10:17;17.70;99.90
47825;DHT22;33589;48.242;14.676;2023-09-19T04:12:55;17.70;99.90
47825;DHT22;33589;48.242;14.676;2023-09-19T04:15:22;17.70;99.90
47825;DHT22;33589;48.242;14.676;2023-09-19T04:17:49;17.70;99.90
47825;DHT22;33589;48.242;14.676;2023-09-19T04:20:19;17.70;99.90
47825;DHT22;33589;48.242;14.676;2023-09-19T04:22:46;17.70;99.90
47825;DHT22;33589;48.242;14.676;2023-09-19T04:25:12;17.70;99.90
47825;DHT22;33589;48.242;14.676;2023-09-19T04:27:39;17.70;99.90
47825;DHT22;33589;48.242;14.676;2023-09-19T04:30:06;17.80;99.90
47825;DHT22;33589;48.242;14.676;2023-09-19T04:32:40;17.90;99.90
47825;DHT22;33589;48.242;14.676;2023-09-19T04:35:07;17.70;99.90
47825;DHT22;33589;48.242;14.676;2023-09-19T04:37:33;17.60;99.90
47825;DHT22;33589;48.242;14.676;2023-09-19T04:39:59;17.60;99.90
47825;DHT22;33589;48.242;14.676;2023-09-19T04:42:24;17.50;99.90
47825;DHT22;33589;48.242;14.676;2023-09-19T04:44:50;17.30;99.90
47825;DHT22;33589;48.242;14.676;2023-09-19T04:47:19;17.40;99.90
47825;DHT22;33589;48.242;14.676;2023-09-19T04:49:44;17.40;99.90
47825;DHT22;33589;48.242;14.676;2023-09-19T04:52:10;17.40;99.90
47825;DHT22;33589;48.242;14.676;2023-09-19T04:54:36;17.30;99.90
47825;DHT22;33589;48.242;14.676;2023-09-19T04:57:02;17.30;99.90
47825;DHT22;33589;48.242;14.676;2023-09-19T04:59:27;17.40;99.90
47825;DHT22;33589;48.242;14.676;2023-09-19T05:01:54;17.40;99.90
47825;DHT22;33589;48.242;14.676;2023-09-19T05:04:19;17.40;99.90
47825;DHT22;33589;48.242;14.676;2023-09-19T05:06:45;17.70;99.90
47825;DHT22;33589;48.242;14.676;2023-09-19T05:09:11;17.70;99.90
47825;DHT22;33589;48.242;14.676;2023-09-19T05:11:36;17.80;99.90
47825;DHT22;33589;48.242;14.676;2023-09-19T05:14:03;17.80;99.90
47825;DHT22;33589;48.242;14.676;2023-09-19T05:16:30;17.80;99.90
47825;DHT22;33589;48.242;14.676;2023-09-19T05:18:58;18.00;99.90
47825;DHT22;33589;48.242;14.676;2023-09-19T05:21:26;17.90;99.90
47825;DHT22;33589;48.242;14.676;2023-09-19T05:23:54;18.10;99.90
47825;DHT22;33589;48.242;14.676;2023-09-19T05:26:20;17.70;99.90
47825;DHT22;33589;48.242;14.676;2023-09-19T05:28:46;17.50;99.90
47825;DHT22;33589;48.242;14.676;2023-09-19T05:31:13;17.70;99.90
47825;DHT22;33589;48.242;14.676;2023-09-19T05:33:40;17.70;99.90
47825;DHT22;33589;48.242;14.676;2023-09-19T05:36:06;17.50;99.90
47825;DHT22;33589;48.242;14.676;2023-09-19T05:38:35;17.40;99.90
47825;DHT22;33589;48.242;14.676;2023-09-19T05:41:00;17.50;99.90
47825;DHT22;33589;48.242;14.676;2023-09-19T05:43:27;17.50;99.90
47825;DHT22;33589;48.242;14.676;2023-09-19T05:45:53;17.50;99.90
47825;DHT22;33589;48.242;14.676;2023-09-19T05:48:22;17.50;99.90
47825;DHT22;33589;48.242;14.676;2023-09-19T05:50:47;17.50;99.90
47825;DHT22;33589;48.242;14.676;2023-09-19T05:53:14;17.70;99.90
47825;DHT22;33589;48.242;14.676;2023-09-19T05:55:41;17.90;99.90
47825;DHT22;33589;48.242;14.676;2023-09-19T05:58:07;17.90;99.90
47825;DHT22;33589;48.242;14.676;2023-09-19T06:00:34;18.00;99.90
47825;DHT22;33589;48.242;14.676;2023-09-19T06:03:00;17.90;99.90
47825;DHT22;33589;48.242;14.676;2023-09-19T06:05:26;17.80;99.90
47825;DHT22;33589;48.242;14.676;2023-09-19T06:07:53;17.90;99.90
47825;DHT22;33589;48.242;14.676;2023-09-19T06:10:19;18.20;99.90
47825;DHT22;33589;48.242;14.676;2023-09-19T06:12:48;18.40;99.90
47825;DHT22;33589;48.242;14.676;2023-09-19T06:15:15;18.50;99.90
47825;DHT22;33589;48.242;14.676;2023-09-19T06:17:53;18.80;99.90
47825;DHT22;33589;48.242;14.676;2023-09-19T06:20:23;19.00;99.90
47825;DHT22;33589;48.242;14.676;2023-09-19T06:22:51;19.20;99.90
47825;DHT22;33589;48.242;14.676;2023-09-19T06:25:18;19.30;99.90
47825;DHT22;33589;48.242;14.676;2023-09-19T06:27:56;19.40;99.90
47825;DHT22;33589;48.242;14.676;2023-09-19T06:30:24;19.60;99.90
47825;DHT22;33589;48.242;14.676;2023-09-19T06:32:55;19.10;99.90
47825;DHT22;33589;48.242;14.676;2023-09-19T06:35:21;19.30;99.90
47825;DHT22;33589;48.242;14.676;2023-09-19T06:37:47;19.00;99.90
47825;DHT22;33589;48.242;14.676;2023-09-19T06:40:14;18.80;99.90
47825;DHT22;33589;48.242;14.676;2023-09-19T06:42:44;18.90;99.90
47825;DHT22;33589;48.242;14.676;2023-09-19T06:45:11;18.80;99.90
47825;DHT22;33589;48.242;14.676;2023-09-19T06:47:39;18.60;99.90
47825;DHT22;33589;48.242;14.676;2023-09-19T06:50:05;18.60;99.90
47825;DHT22;33589;48.242;14.676;2023-09-19T06:52:34;18.40;99.90
47825;DHT22;33589;48.242;14.676;2023-09-19T06:55:00;18.50;99.90
47825;DHT22;33589;48.242;14.676;2023-09-19T06:57:28;18.40;99.90
47825;DHT22;33589;48.242;14.676;2023-09-19T06:59:56;18.90;99.90
47825;DHT22;33589;48.242;14.676;2023-09-19T07:02:21;19.10;99.90
47825;DHT22;33589;48.242;14.676;2023-09-19T07:04:47;19.30;99.90
47825;DHT22;33589;48.242;14.676;2023-09-19T07:07:13;20.20;99.90
47825;DHT22;33589;48.242;14.676;2023-09-19T07:09:39;21.10;99.90
47825;DHT22;33589;48.242;14.676;2023-09-19T07:12:05;21.20;99.90
47825;DHT22;33589;48.242;14.676;2023-09-19T07:14:31;20.80;99.90
47825;DHT22;33589;48.242;14.676;2023-09-19T07:16:57;21.20;99.90
47825;DHT22;33589;48.242;14.676;2023-09-19T07:19:26;21.60;99.90
47825;DHT22;33589;48.242;14.676;2023-09-19T07:21:54;22.10;99.90
47825;DHT22;33589;48.242;14.676;2023-09-19T07:24:19;23.10;99.90
47825;DHT22;33589;48.242;14.676;2023-09-19T07:26:49;24.50;91.00
47825;DHT22;33589;48.242;14.676;2023-09-19T07:29:15;24.50;89.10
47825;DHT22;33589;48.242;14.676;2023-09-19T07:31:41;25.20;82.30
47825;DHT22;33589;48.242;14.676;2023-09-19T07:34:07;26.10;76.00
47825;DHT22;33589;48.242;14.676;2023-09-19T07:36:34;26.50;74.50
47825;DHT22;33589;48.242;14.676;2023-09-19T07:39:00;27.30;70.70
47825;DHT22;33589;48.242;14.676;2023-09-19T07:41:26;27.30;69.60
47825;DHT22;33589;48.242;14.676;2023-09-19T07:43:52;26.40;71.60
47825;DHT22;33589;48.242;14.676;2023-09-19T07:46:18;27.70;68.70
47825;DHT22;33589;48.242;14.676;2023-09-19T07:48:44;28.30;63.60
47825;DHT22;33589;48.242;14.676;2023-09-19T07:51:14;28.10;67.90
47825;DHT22;33589;48.242;14.676;2023-09-19T07:53:41;27.60;82.00
47825;DHT22;33589;48.242;14.676;2023-09-19T07:56:09;28.20;68.00
47825;DHT22;33589;48.242;14.676;2023-09-19T07:58:35;29.10;64.10
47825;DHT22;33589;48.242;14.676;2023-09-19T08:01:06;29.30;59.50
47825;DHT22;33589;48.242;14.676;2023-09-19T08:03:32;29.50;57.40
47825;DHT22;33589;48.242;14.676;2023-09-19T08:05:58;28.80;83.60
47825;DHT22;33589;48.242;14.676;2023-09-19T08:08:25;30.20;83.60
47825;DHT22;33589;48.242;14.676;2023-09-19T08:10:57;32.00;79.20
47825;DHT22;33589;48.242;14.676;2023-09-19T08:13:24;32.10;77.50
47825;DHT22;33589;48.242;14.676;2023-09-19T08:15:50;31.50;51.90
47825;DHT22;33589;48.242;14.676;2023-09-19T08:18:16;31.50;52.60
47825;DHT22;33589;48.242;14.676;2023-09-19T08:20:42;31.00;53.40
47825;DHT22;33589;48.242;14.676;2023-09-19T08:23:08;30.70;53.70
47825;DHT22;33589;48.242;14.676;2023-09-19T08:25:34;30.50;54.60
47825;DHT22;33589;48.242;14.676;2023-09-19T08:28:00;30.70;55.00
47825;DHT22;33589;48.242;14.676;2023-09-19T08:30:29;30.60;53.90
47825;DHT22;33589;48.242;14.676;2023-09-19T08:32:59;31.30;52.40
47825;DHT22;33589;48.242;14.676;2023-09-19T08:35:26;32.30;50.90
47825;DHT22;33589;48.242;14.676;2023-09-19T08:37:58;33.40;50.00
47825;DHT22;33589;48.242;14.676;2023-09-19T08:40:26;34.50;46.60
47825;DHT22;33589;48.242;14.676;2023-09-19T08:42:55;33.10;46.90
47825;DHT22;33589;48.242;14.676;2023-09-19T08:45:22;33.90;46.70
47825;DHT22;33589;48.242;14.676;2023-09-19T08:50:41;32.40;46.90
47825;DHT22;33589;48.242;14.676;2023-09-19T08:53:11;32.70;48.10
47825;DHT22;33589;48.242;14.676;2023-09-19T08:55:41;33.00;48.00
47825;DHT22;33589;48.242;14.676;2023-09-19T08:58:10;32.20;47.40
47825;DHT22;33589;48.242;14.676;2023-09-19T09:00:39;31.30;49.60
47825;DHT22;33589;48.242;14.676;2023-09-19T09:03:09;32.40;49.20
47825;DHT22;33589;48.242;14.676;2023-09-19T09:05:36;31.40;48.00
47825;DHT22;33589;48.242;14.676;2023-09-19T09:08:02;31.20;48.90
47825;DHT22;33589;48.242;14.676;2023-09-19T09:10:31;32.20;49.20
47825;DHT22;33589;48.242;14.676;2023-09-19T09:12:58;33.40;46.10
47825;DHT22;33589;48.242;14.676;2023-09-19T09:15:24;32.40;46.10
47825;DHT22;33589;48.242;14.676;2023-09-19T09:17:51;32.40;48.70
47825;DHT22;33589;48.242;14.676;2023-09-19T09:20:21;33.70;47.60
47825;DHT22;33589;48.242;14.676;2023-09-19T09:22:54;33.70;45.60
47825;DHT22;33589;48.242;14.676;2023-09-19T09:25:22;32.50;48.50
47825;DHT22;33589;48.242;14.676;2023-09-19T09:28:01;31.00;50.40
47825;DHT22;33589;48.242;14.676;2023-09-19T09:30:34;29.00;55.80
47825;DHT22;33589;48.242;14.676;2023-09-19T09:33:11;29.00;56.80
47825;DHT22;33589;48.242;14.676;2023-09-19T09:35:59;29.80;53.20
47825;DHT22;33589;48.242;14.676;2023-09-19T09:38:29;28.10;56.90
47825;DHT22;33589;48.242;14.676;2023-09-19T09:40:59;28.00;57.30
47825;DHT22;33589;48.242;14.676;2023-09-19T09:43:33;28.90;54.70
47825;DHT22;33589;48.242;14.676;2023-09-19T09:46:15;29.10;54.80
47825;DHT22;33589;48.242;14.676;2023-09-19T09:49:04;30.40;52.60
47825;DHT22;33589;48.242;14.676;2023-09-19T09:54:26;30.20;52.60
47825;DHT22;33589;48.242;14.676;2023-09-19T09:57:00;29.70;54.00
47825;DHT22;33589;48.242;14.676;2023-09-19T10:02:19;30.10;52.90
47825;DHT22;33589;48.242;14.676;2023-09-19T10:04:57;29.60;54.30
47825;DHT22;33589;48.242;14.676;2023-09-19T10:07:41;30.50;52.10
47825;DHT22;33589;48.242;14.676;2023-09-19T10:10:15;29.90;53.50
47825;DHT22;33589;48.242;14.676;2023-09-19T10:12:55;27.70;57.10
47825;DHT22;33589;48.242;14.676;2023-09-19T10:15:26;26.90;58.60
47825;DHT22;33589;48.242;14.676;2023-09-19T10:17:54;25.70;63.20
47825;DHT22;33589;48.242;14.676;2023-09-19T10:20:22;25.00;65.70
47825;DHT22;33589;48.242;14.676;2023-09-19T10:23:08;25.40;65.40
47825;DHT22;33589;48.242;14.676;2023-09-19T10:25:40;24.70;66.00
47825;DHT22;33589;48.242;14.676;2023-09-19T10:28:10;24.60;67.10
47825;DHT22;33589;48.242;14.676;2023-09-19T10:30:37;25.60;64.50
47825;DHT22;33589;48.242;14.676;2023-09-19T10:33:08;26.70;61.20
47825;DHT22;33589;48.242;14.676;2023-09-19T10:35:34;26.20;61.40
47825;DHT22;33589;48.242;14.676;2023-09-19T10:38:04;26.90;59.30
47825;DHT22;33589;48.242;14.676;2023-09-19T10:40:33;26.80;59.70
47825;DHT22;33589;48.242;14.676;2023-09-19T10:43:05;28.00;58.10
47825;DHT22;33589;48.242;14.676;2023-09-19T10:45:32;29.40;52.80
47825;DHT22;33589;48.242;14.676;2023-09-19T10:48:02;28.20;54.60
47825;DHT22;33589;48.242;14.676;2023-09-19T10:50:33;27.40;55.80
47825;DHT22;33589;48.242;14.676;2023-09-19T10:53:02;27.60;53.50
47825;DHT22;33589;48.242;14.676;2023-09-19T10:55:31;27.20;54.80
47825;DHT22;33589;48.242;14.676;2023-09-19T10:57:59;26.60;56.10
47825;DHT22;33589;48.242;14.676;2023-09-19T11:00:26;25.70;58.00
47825;DHT22;33589;48.242;14.676;2023-09-19T11:03:20;26.20;57.90
47825;DHT22;33589;48.242;14.676;2023-09-19T11:06:12;29.00;53.80
47825;DHT22;33589;48.242;14.676;2023-09-19T11:08:58;29.50;51.10
47825;DHT22;33589;48.242;14.676;2023-09-19T11:14:40;30.70;47.80
47825;DHT22;33589;48.242;14.676;2023-09-19T11:30:52;27.30;54.70
47825;DHT22;33589;48.242;14.676;2023-09-19T11:33:30;26.60;56.70
47825;DHT22;33589;48.242;14.676;2023-09-19T11:46:29;27.80;54.10
47825;DHT22;33589;48.242;14.676;2023-09-19T11:49:05;28.30;54.00
47825;DHT22;33589;48.242;14.676;2023-09-19T11:51:41;28.50;52.30
47825;DHT22;33589;48.242;14.676;2023-09-19T11:54:11;29.10;51.10
47825;DHT22;33589;48.242;14.676;2023-09-19T11:56:44;29.40;49.00
47825;DHT22;33589;48.242;14.676;2023-09-19T11:59:11;27.80;53.10
47825;DHT22;33589;48.242;14.676;2023-09-19T12:01:38;26.50;55.50
47825;DHT22;33589;48.242;14.676;2023-09-19T12:04:11;26.10;55.90
47825;DHT22;33589;48.242;14.676;2023-09-19T12:06:37;26.60;55.70
47825;DHT22;33589;48.242;14.676;2023-09-19T12:09:13;25.70;56.20
47825;DHT22;33589;48.242;14.676;2023-09-19T12:11:42;25.00;57.80
47825;DHT22;33589;48.242;14.676;2023-09-19T12:14:10;25.50;58.20
47825;DHT22;33589;48.242;14.676;2023-09-19T12:16:35;26.30;56.60
47825;DHT22;33589;48.242;14.676;2023-09-19T12:19:21;26.00;55.00
47825;DHT22;33589;48.242;14.676;2023-09-19T12:22:00;25.50;57.00
47825;DHT22;33589;48.242;14.676;2023-09-19T12:24:35;26.20;56.00
47825;DHT22;33589;48.242;14.676;2023-09-19T12:27:05;27.20;54.10
47825;DHT22;33589;48.242;14.676;2023-09-19T12:29:44;27.80;53.50
47825;DHT22;33589;48.242;14.676;2023-09-19T12:32:10;27.00;53.40
47825;DHT22;33589;48.242;14.676;2023-09-19T12:34:36;27.10;54.10
47825;DHT22;33589;48.242;14.676;2023-09-19T12:37:12;27.90;51.10
47825;DHT22;33589;48.242;14.676;2023-09-19T12:39:41;27.10;52.30
47825;DHT22;33589;48.242;14.676;2023-09-19T12:42:11;26.80;53.90
47825;DHT22;33589;48.242;14.676;2023-09-19T12:44:43;27.00;52.60
47825;DHT22;33589;48.242;14.676;2023-09-19T12:47:11;27.10;53.60
47825;DHT22;33589;48.242;14.676;2023-09-19T12:52:39;26.70;53.50
47825;DHT22;33589;48.242;14.676;2023-09-19T12:55:05;26.50;53.70
47825;DHT22;33589;48.242;14.676;2023-09-19T12:57:36;26.50;55.40
47825;DHT22;33589;48.242;14.676;2023-09-19T13:00:03;25.80;55.70
47825;DHT22;33589;48.242;14.676;2023-09-19T13:02:31;25.90;56.10
47825;DHT22;33589;48.242;14.676;2023-09-19T13:04:58;25.90;55.20
47825;DHT22;33589;48.242;14.676;2023-09-19T13:07:45;25.70;57.90
47825;DHT22;33589;48.242;14.676;2023-09-19T13:10:15;25.40;55.90
47825;DHT22;33589;48.242;14.676;2023-09-19T13:12:43;24.20;57.70
47825;DHT22;33589;48.242;14.676;2023-09-19T13:15:14;23.90;59.50
47825;DHT22;33589;48.242;14.676;2023-09-19T13:17:49;24.00;59.90
47825;DHT22;33589;48.242;14.676;2023-09-19T13:20:25;24.70;58.50
47825;DHT22;33589;48.242;14.676;2023-09-19T13:22:55;25.20;58.20
47825;DHT22;33589;48.242;14.676;2023-09-19T13:25:25;25.60;57.70
47825;DHT22;33589;48.242;14.676;2023-09-19T13:27:55;25.60;55.90
47825;DHT22;33589;48.242;14.676;2023-09-19T13:30:26;25.30;56.60
47825;DHT22;33589;48.242;14.676;2023-09-19T13:33:03;24.90;55.80
47825;DHT22;33589;48.242;14.676;2023-09-19T13:35:29;24.40;56.90
47825;DHT22;33589;48.242;14.676;2023-09-19T13:37:55;24.10;56.50
47825;DHT22;33589;48.242;14.676;2023-09-19T13:40:20;23.90;57.60
47825;DHT22;33589;48.242;14.676;2023-09-19T13:42:46;23.90;57.50
47825;DHT22;33589;48.242;14.676;2023-09-19T13:45:12;23.70;57.40
47825;DHT22;33589;48.242;14.676;2023-09-19T13:47:38;23.70;58.90
47825;DHT22;33589;48.242;14.676;2023-09-19T13:50:04;23.90;57.60
47825;DHT22;33589;48.242;14.676;2023-09-19T13:52:31;24.10;57.10
47825;DHT22;33589;48.242;14.676;2023-09-19T13:54:58;24.50;56.00
47825;DHT22;33589;48.242;14.676;2023-09-19T13:57:24;24.50;57.00
47825;DHT22;33589;48.242;14.676;2023-09-19T13:59:51;24.70;55.60
47825;DHT22;33589;48.242;14.676;2023-09-19T14:02:17;24.50;56.50
47825;DHT22;33589;48.242;14.676;2023-09-19T14:04:48;24.40;55.70
47825;DHT22;33589;48.242;14.676;2023-09-19T14:07:15;24.30;56.60
47825;DHT22;33589;48.242;14.676;2023-09-19T14:09:41;24.40;56.50
47825;DHT22;33589;48.242;14.676;2023-09-19T14:12:06;24.40;56.00
47825;DHT22;33589;48.242;14.676;2023-09-19T14:14:32;24.30;57.00
47825;DHT22;33589;48.242;14.676;2023-09-19T14:16:58;24.50;57.90
47825;DHT22;33589;48.242;14.676;2023-09-19T14:19:27;24.90;56.80
47825;DHT22;33589;48.242;14.676;2023-09-19T14:21:52;25.20;55.40
47825;DHT22;33589;48.242;14.676;2023-09-19T14:24:21;25.50;54.70
47825;DHT22;33589;48.242;14.676;2023-09-19T14:26:47;25.50;55.10
47825;DHT22;33589;48.242;14.676;2023-09-19T14:29:15;25.30;54.90
47825;DHT22;33589;48.242;14.676;2023-09-19T14:31:40;25.30;55.40
47825;DHT22;33589;48.242;14.676;2023-09-19T14:34:06;25.20;54.20
47825;DHT22;33589;48.242;14.676;2023-09-19T14:36:32;25.10;55.10
47825;DHT22;33589;48.242;14.676;2023-09-19T14:39:01;24.50;55.70
47825;DHT22;33589;48.242;14.676;2023-09-19T14:41:26;24.10;57.90
47825;DHT22;33589;48.242;14.676;2023-09-19T14:43:52;24.10;57.90
47825;DHT22;33589;48.242;14.676;2023-09-19T14:46:18;23.90;58.00
47825;DHT22;33589;48.242;14.676;2023-09-19T14:48:45;24.20;57.20
47825;DHT22;33589;48.242;14.676;2023-09-19T14:51:13;24.30;56.40
47825;DHT22;33589;48.242;14.676;2023-09-19T14:53:40;24.00;57.00
47825;DHT22;33589;48.242;14.676;2023-09-19T14:56:09;23.90;58.40
47825;DHT22;33589;48.242;14.676;2023-09-19T14:58:36;24.10;57.00
47825;DHT22;33589;48.242;14.676;2023-09-19T15:01:05;24.10;55.70
47825;DHT22;33589;48.242;14.676;2023-09-19T15:03:32;24.20;56.90
47825;DHT22;33589;48.242;14.676;2023-09-19T15:06:19;24.10;55.60
47825;DHT22;33589;48.242;14.676;2023-09-19T15:08:46;24.30;57.10
47825;DHT22;33589;48.242;14.676;2023-09-19T15:11:13;24.30;57.90
47825;DHT22;33589;48.242;14.676;2023-09-19T15:13:42;24.20;57.40
47825;DHT22;33589;48.242;14.676;2023-09-19T15:16:08;24.20;56.50
47825;DHT22;33589;48.242;14.676;2023-09-19T15:18:41;24.10;56.80
47825;DHT22;33589;48.242;14.676;2023-09-19T15:21:09;23.90;57.70
47825;DHT22;33589;48.242;14.676;2023-09-19T15:23:36;23.90;58.00
47825;DHT22;33589;48.242;14.676;2023-09-19T15:26:11;23.90;57.90
47825;DHT22;33589;48.242;14.676;2023-09-19T15:28:37;23.90;58.00
47825;DHT22;33589;48.242;14.676;2023-09-19T15:31:08;24.00;57.40
47825;DHT22;33589;48.242;14.676;2023-09-19T15:33:35;24.20;57.10
47825;DHT22;33589;48.242;14.676;2023-09-19T15:36:11;24.00;56.90
47825;DHT22;33589;48.242;14.676;2023-09-19T15:41:25;24.20;57.00
47825;DHT22;33589;48.242;14.676;2023-09-19T15:43:52;23.90;58.00
47825;DHT22;33589;48.242;14.676;2023-09-19T15:46:19;24.00;58.10
47825;DHT22;33589;48.242;14.676;2023-09-19T15:48:45;23.70;58.70
47825;DHT22;33589;48.242;14.676;2023-09-19T15:51:11;23.60;59.40
47825;DHT22;33589;48.242;14.676;2023-09-19T15:53:56;23.50;59.40
47825;DHT22;33589;48.242;14.676;2023-09-19T15:56:23;23.40;58.40
47825;DHT22;33589;48.242;14.676;2023-09-19T15:58:55;23.30;58.70
47825;DHT22;33589;48.242;14.676;2023-09-19T16:01:22;23.20;59.50
47825;DHT22;33589;48.242;14.676;2023-09-19T16:03:52;23.50;57.90
47825;DHT22;33589;48.242;14.676;2023-09-19T16:06:20;23.60;57.60
47825;DHT22;33589;48.242;14.676;2023-09-19T16:08:50;23.60;57.60
47825;DHT22;33589;48.242;14.676;2023-09-19T16:11:17;23.80;59.50
47825;DHT22;33589;48.242;14.676;2023-09-19T16:13:43;23.70;57.20
47825;DHT22;33589;48.242;14.676;2023-09-19T16:16:14;23.60;57.60